sensor_id;sensor_type;location;lat;lon;timestamp;temperature;humidity
36552;DHT22;22559;54.176;12.102;2024-01-15T00:01:08;2.00;99.90
36552;DHT22;22559;54.176;12.102;2024-01-15T00:03:34;2.10;99.90
36552;DHT22;22559;54.176;12.102;2024-01-15T00:05:59;2.10;99.90
36552;DHT22;22559;54.176;12.102;2024-01-15T00:08:25;2.10;99.90
36552;DHT22;22559;54.176;12.102;2024-01-15T00:10:51;2.10;99.90
36552;DHT22;22559;54.176;12.102;2024-01-15T00:13:17;2.10;99.90
36552;DHT22;22559;54.176;12.102;2024-01-15T00:15:42;2.20;99.90
36552;DHT22;22559;54.176;12.102;2024-01-15T00:18:09;2.10;99.90
36552;DHT22;22559;54.176;12.102;2024-01-15T00:20:34;2.10;99.90
36552;DHT22;22559;54.176;12.102;2024-01-15T00:23:00;2.10;99.90
36552;DHT22;22559;54.176;12.102;2024-01-15T00:25:26;2.10;99.90
36552;DHT22;22559;54.176;12.102;2024-01-15T00:27:51;2.10;99.90
36552;DHT22;22559;54.176;12.102;2024-01-15T00:30:17;2.10;99.90
36552;DHT22;22559;54.176;12.102;2024-01-15T00:32:42;2.20;99.90
36552;DHT22;22559;54.176;12.102;2024-01-15T00:35:08;2.20;99.90
36552;DHT22;22559;54.176;12.102;2024-01-15T00:37:34;2.20;99.90
36552;DHT22;22559;54.176;12.102;2024-01-15T00:40:00;2.20;99.90
36552;DHT22;22559;54.176;12.102;2024-01-15T00:42:26;2.30;99.90
36552;DHT22;22559;54.176;12.102;2024-01-15T00:44:51;2.20;99.90
36552;DHT22;22559;54.176;12.102;2024-01-15T00:47:20;2.30;99.90
36552;DHT22;22559;54.176;12.102;2024-01-15T00:49:46;2.30;99.90
36552;DHT22;22559;54.176;12.102;2024-01-15T00:52:11;2.20;99.90
36552;DHT22;22559;54.176;12.102;2024-01-15T00:54:37;2.20;99.90
36552;DHT22;22559;54.176;12.102;2024-01-15T00:57:03;2.20;99.90
36552;DHT22;22559;54.176;12.102;2024-01-15T00:59:29;2.10;99.90
36552;DHT22;22559;54.176;12.102;2024-01-15T01:01:54;2.20;99.90
36552;DHT22;22559;54.176;12.102;2024-01-15T01:04:20;2.20;99.90
36552;DHT22;22559;54.176;12.102;2024-01-15T01:06:46;2.30;99.90
36552;DHT22;22559;54.176;12.102;2024-01-15T01:09:11;2.30;99.90
36552;DHT22;22559;54.176;12.102;2024-01-15T01:11:37;2.30;99.90
36552;DHT22;22559;54.176;12.102;2024-01-15T01:14:03;2.40;99.90
36552;DHT22;22559;54.176;12.102;2024-01-15T01:16:28;2.40;99.90
36552;DHT22;22559;54.176;12.102;2024-01-15T01:18:55;2.50;99.90
36552;DHT22;22559;54.176;12.102;2024-01-15T01:21:21;2.50;99.90
36552;DHT22;22559;54.176;12.102;2024-01-15T01:23:46;2.50;99.90
36552;DHT22;22559;54.176;12.102;2024-01-15T01:26:16;2.50;99.90
36552;DHT22;22559;54.176;12.102;2024-01-15T01:28:41;2.60;99.90
36552;DHT22;22559;54.176;12.102;2024-01-15T01:31:07;2.60;99.90
36552;DHT22;22559;54.176;12.102;2024-01-15T01:33:34;2.60;99.90
36552;DHT22;22559;54.176;12.102;2024-01-15T01:35:59;2.60;99.90
36552;DHT22;22559;54.176;12.102;2024-01-15T01:38:25;2.60;99.90
36552;DHT22;22559;54.176;12.102;2024-01-15T01:40:51;2.50;99.90
36552;DHT22;22559;54.176;12.102;2024-01-15T01:43:16;2.30;99.90
36552;DHT22;22559;54.176;12.102;2024-01-15T01:45:43;2.20;99.90
36552;DHT22;22559;54.176;12.102;2024-01-15T01:48:08;2.10;99.90
36552;DHT22;22559;54.176;12.102;2024-01-15T01:50:34;2.10;99.90
36552;DHT22;22559;54.176;12.102;2024-01-15T01:53:01;2.10;99.90
36552;DHT22;22559;54.176;12.102;2024-01-15T01:55:31;2.10;99.90
36552;DHT22;22559;54.176;12.102;2024-01-15T01:57:59;2.10;99.90
36552;DHT22;22559;54.176;12.102;2024-01-15T02:00:25;2.20;99.90
36552;DHT22;22559;54.176;12.102;2024-01-15T02:02:50;2.20;99.90
36552;DHT22;22559;54.176;12.102;2024-01-15T02:05:19;2.20;99.90
36552;DHT22;22559;54.176;12.102;2024-01-15T02:07:46;2.20;99.90
36552;DHT22;22559;54.176;12.102;2024-01-15T02:10:11;2.30;99.90
36552;DHT22;22559;54.176;12.102;2024-01-15T02:12:37;2.40;99.90
36552;DHT22;22559;54.176;12.102;2024-01-15T02:15:03;2.40;99.90
36552;DHT22;22559;54.176;12.102;2024-01-15T02:17:30;2.50;99.90
36552;DHT22;22559;54.176;12.102;2024-01-15T02:19:56;2.50;99.90
36552;DHT22;22559;54.176;12.102;2024-01-15T02:22:21;2.60;99.90
36552;DHT22;22559;54.176;12.102;2024-01-15T02:24:47;2.70;99.90
36552;DHT22;22559;54.176;12.102;2024-01-15T02:27:13;2.80;99.90
36552;DHT22;22559;54.176;12.102;2024-01-15T02:29:39;2.90;99.90
36552;DHT22;22559;54.176;12.102;2024-01-15T02:32:05;2.90;99.90
36552;DHT22;22559;54.176;12.102;2024-01-15T02:34:32;2.90;99.90
36552;DHT22;22559;54.176;12.102;2024-01-15T02:36:58;3.00;99.90
36552;DHT22;22559;54.176;12.102;2024-01-15T02:39:24;3.10;99.90
36552;DHT22;22559;54.176;12.102;2024-01-15T02:41:49;3.20;99.90
36552;DHT22;22559;54.176;12.102;2024-01-15T02:44:15;3.20;99.90
36552;DHT22;22559;54.176;12.102;2024-01-15T02:46:40;3.30;99.90
36552;DHT22;22559;54.176;12.102;2024-01-15T02:49:06;3.40;99.90
36552;DHT22;22559;54.176;12.102;2024-01-15T02:51:32;3.40;99.90
36552;DHT22;22559;54.176;12.102;2024-01-15T02:53:57;3.40;99.90
36552;DHT22;22559;54.176;12.102;2024-01-15T02:56:23;3.40;99.90
36552;DHT22;22559;54.176;12.102;2024-01-15T02:58:49;3.50;99.90
36552;DHT22;22559;54.176;12.102;2024-01-15T03:01:14;3.40;99.90
36552;DHT22;22559;54.176;12.102;2024-01-15T03:03:40;3.50;99.90
36552;DHT22;22559;54.176;12.102;2024-01-15T03:06:06;3.40;99.90
36552;DHT22;22559;54.176;12.102;2024-01-15T03:08:31;3.30;99.90
36552;DHT22;22559;54.176;12.102;2024-01-15T03:10:57;3.20;99.90
36552;DHT22;22559;54.176;12.102;2024-01-15T03:13:23;3.10;99.90
36552;DHT22;22559;54.176;12.102;2024-01-15T03:15:48;3.00;99.90
36552;DHT22;22559;54.176;12.102;2024-01-15T03:18:14;2.90;99.90
36552;DHT22;22559;54.176;12.102;2024-01-15T03:20:39;3.20;99.90
36552;DHT22;22559;54.176;12.102;2024-01-15T03:23:05;3.30;99.90
36552;DHT22;22559;54.176;12.102;2024-01-15T03:25:31;3.40;99.90
36552;DHT22;22559;54.176;12.102;2024-01-15T03:27:56;3.40;99.90
36552;DHT22;22559;54.176;12.102;2024-01-15T03:30:22;3.40;99.90
36552;DHT22;22559;54.176;12.102;2024-01-15T03:32:47;3.50;99.90
36552;DHT22;22559;54.176;12.102;2024-01-15T03:35:15;3.40;99.90
36552;DHT22;22559;54.176;12.102;2024-01-15T03:37:41;3.40;99.90
36552;DHT22;22559;54.176;12.102;2024-01-15T03:40:07;3.40;99.90
36552;DHT22;22559;54.176;12.102;2024-01-15T03:42:33;3.40;99.90
36552;DHT22;22559;54.176;12.102;2024-01-15T03:44:58;3.40;99.90
36552;DHT22;22559;54.176;12.102;2024-01-15T03:47:24;3.50;99.90
36552;DHT22;22559;54.176;12.102;2024-01-15T03:49:50;3.60;99.90
36552;DHT22;22559;54.176;12.102;2024-01-15T03:52:15;3.60;99.90
36552;DHT22;22559;54.176;12.102;2024-01-15T03:54:41;3.60;99.90
36552;DHT22;22559;54.176;12.102;2024-01-15T03:57:07;3.60;99.90
36552;DHT22;22559;54.176;12.102;2024-01-15T03:59:32;3.60;99.90
36552;DHT22;22559;54.176;12.102;2024-01-15T04:01:58;3.60;99.90
36552;DHT22;22559;54.176;12.102;2024-01-15T04:04:23;3.60;99.90
36552;DHT22;22559;54.176;12.102;2024-01-15T04:06:49;3.60;99.90
36552;DHT22;22559;54.176;12.102;2024-01-15T04:09:15;3.60;99.90
36552;DHT22;22559;54.176;12.102;2024-01-15T04:11:41;3.60;99.90
36552;DHT22;22559;54.176;12.102;2024-01-15T04:14:06;3.50;99.90
36552;DHT22;22559;54.176;12.102;2024-01-15T04:16:32;3.60;99.90
36552;DHT22;22559;54.176;12.102;2024-01-15T04:18:57;3.60;99.90
36552;DHT22;22559;54.176;12.102;2024-01-15T04:21:23;3.60;99.90
36552;DHT22;22559;54.176;12.102;2024-01-15T04:23:49;3.60;99.90
36552;DHT22;22559;54.176;12.102;2024-01-15T04:26:15;3.40;99.90
36552;DHT22;22559;54.176;12.102;2024-01-15T04:28:40;3.40;99.90
36552;DHT22;22559;54.176;12.102;2024-01-15T04:31:06;3.30;99.90
36552;DHT22;22559;54.176;12.102;2024-01-15T04:33:31;3.20;99.90
36552;DHT22;22559;54.176;12.102;2024-01-15T04:36:00;3.20;99.90
36552;DHT22;22559;54.176;12.102;2024-01-15T04:38:26;3.20;99.90
36552;DHT22;22559;54.176;12.102;2024-01-15T04:40:52;3.30;99.90
36552;DHT22;22559;54.176;12.102;2024-01-15T04:43:20;3.30;99.90
36552;DHT22;22559;54.176;12.102;2024-01-15T04:45:46;3.30;99.90
36552;DHT22;22559;54.176;12.102;2024-01-15T04:48:11;3.30;99.90
36552;DHT22;22559;54.176;12.102;2024-01-15T04:50:37;3.40;99.90
36552;DHT22;22559;54.176;12.102;2024-01-15T04:53:03;3.40;99.90
36552;DHT22;22559;54.176;12.102;2024-01-15T04:55:28;3.30;99.90
36552;DHT22;22559;54.176;12.102;2024-01-15T04:57:54;3.30;99.90
36552;DHT22;22559;54.176;12.102;2024-01-15T05:00:20;3.30;99.90
36552;DHT22;22559;54.176;12.102;2024-01-15T05:02:45;3.30;99.90
36552;DHT22;22559;54.176;12.102;2024-01-15T05:05:11;3.30;99.90
36552;DHT22;22559;54.176;12.102;2024-01-15T05:07:36;3.40;99.90
36552;DHT22;22559;54.176;12.102;2024-01-15T05:10:02;3.40;99.90
36552;DHT22;22559;54.176;12.102;2024-01-15T05:12:29;3.40;99.90
36552;DHT22;22559;54.176;12.102;2024-01-15T05:14:54;3.40;99.90
36552;DHT22;22559;54.176;12.102;2024-01-15T05:17:22;3.40;99.90
36552;DHT22;22559;54.176;12.102;2024-01-15T05:19:48;3.40;99.90
36552;DHT22;22559;54.176;12.102;2024-01-15T05:22:13;3.50;99.90
36552;DHT22;22559;54.176;12.102;2024-01-15T05:24:39;3.40;99.90
36552;DHT22;22559;54.176;12.102;2024-01-15T05:27:05;3.40;99.90
36552;DHT22;22559;54.176;12.102;2024-01-15T05:29:30;3.40;99.90
36552;DHT22;22559;54.176;12.102;2024-01-15T05:31:56;3.40;99.90
36552;DHT22;22559;54.176;12.102;2024-01-15T05:34:21;3.40;99.90
36552;DHT22;22559;54.176;12.102;2024-01-15T05:36:47;3.40;99.90
36552;DHT22;22559;54.176;12.102;2024-01-15T05:39:13;3.50;99.90
36552;DHT22;22559;54.176;12.102;2024-01-15T05:41:38;3.50;99.90
36552;DHT22;22559;54.176;12.102;2024-01-15T05:44:04;3.50;99.90
36552;DHT22;22559;54.176;12.102;2024-01-15T05:46:30;3.50;99.90
36552;DHT22;22559;54.176;12.102;2024-01-15T05:48:55;3.50;99.90
36552;DHT22;22559;54.176;12.102;2024-01-15T05:51:21;3.50;99.90
36552;DHT22;22559;54.176;12.102;2024-01-15T05:53:46;3.40;99.90
36552;DHT22;22559;54.176;12.102;2024-01-15T05:56:12;3.40;99.90
36552;DHT22;22559;54.176;12.102;2024-01-15T05:58:38;3.30;99.90
36552;DHT22;22559;54.176;12.102;2024-01-15T06:01:03;3.30;99.90
36552;DHT22;22559;54.176;12.102;2024-01-15T06:03:29;3.30;99.90
36552;DHT22;22559;54.176;12.102;2024-01-15T06:05:55;3.40;99.90
36552;DHT22;22559;54.176;12.102;2024-01-15T06:08:20;3.40;99.90
36552;DHT22;22559;54.176;12.102;2024-01-15T06:10:46;3.40;99.90
36552;DHT22;22559;54.176;12.102;2024-01-15T06:13:12;3.40;99.90
36552;DHT22;22559;54.176;12.102;2024-01-15T06:15:38;3.40;99.90
36552;DHT22;22559;54.176;12.102;2024-01-15T06:18:04;3.40;99.90
36552;DHT22;22559;54.176;12.102;2024-01-15T06:20:30;3.30;99.90
36552;DHT22;22559;54.176;12.102;2024-01-15T06:22:56;3.30;99.90
36552;DHT22;22559;54.176;12.102;2024-01-15T06:25:21;3.30;99.90
36552;DHT22;22559;54.176;12.102;2024-01-15T06:27:47;3.30;99.90
36552;DHT22;22559;54.176;12.102;2024-01-15T06:30:13;3.20;99.90
36552;DHT22;22559;54.176;12.102;2024-01-15T06:32:38;3.20;99.90
36552;DHT22;22559;54.176;12.102;2024-01-15T06:35:04;3.10;99.90
36552;DHT22;22559;54.176;12.102;2024-01-15T06:37:30;3.10;99.90
36552;DHT22;22559;54.176;12.102;2024-01-15T06:39:57;3.10;99.90
36552;DHT22;22559;54.176;12.102;2024-01-15T06:42:23;3.10;99.90
36552;DHT22;22559;54.176;12.102;2024-01-15T06:44:49;3.10;99.90
36552;DHT22;22559;54.176;12.102;2024-01-15T06:47:14;3.00;99.90
36552;DHT22;22559;54.176;12.102;2024-01-15T06:49:40;2.90;99.90
36552;DHT22;22559;54.176;12.102;2024-01-15T06:52:06;2.80;99.90
36552;DHT22;22559;54.176;12.102;2024-01-15T06:54:31;2.80;99.90
36552;DHT22;22559;54.176;12.102;2024-01-15T06:56:57;2.80;99.90
36552;DHT22;22559;54.176;12.102;2024-01-15T06:59:23;2.80;99.90
36552;DHT22;22559;54.176;12.102;2024-01-15T07:01:48;2.80;99.90
36552;DHT22;22559;54.176;12.102;2024-01-15T07:04:14;2.80;99.90
36552;DHT22;22559;54.176;12.102;2024-01-15T07:06:39;2.80;99.90
36552;DHT22;22559;54.176;12.102;2024-01-15T07:09:05;2.70;99.90
36552;DHT22;22559;54.176;12.102;2024-01-15T07:11:31;2.70;99.90
36552;DHT22;22559;54.176;12.102;2024-01-15T07:13:57;2.80;99.90
36552;DHT22;22559;54.176;12.102;2024-01-15T07:16:22;2.80;99.90
36552;DHT22;22559;54.176;12.102;2024-01-15T07:18:48;2.80;99.90
36552;DHT22;22559;54.176;12.102;2024-01-15T07:21:14;2.80;99.90
36552;DHT22;22559;54.176;12.102;2024-01-15T07:23:39;2.80;99.90
36552;DHT22;22559;54.176;12.102;2024-01-15T07:26:05;2.80;99.90
36552;DHT22;22559;54.176;12.102;2024-01-15T07:28:30;2.70;99.90
36552;DHT22;22559;54.176;12.102;2024-01-15T07:30:57;2.80;99.90
36552;DHT22;22559;54.176;12.102;2024-01-15T07:33:22;2.80;99.90
36552;DHT22;22559;54.176;12.102;2024-01-15T07:35:48;2.70;99.90
36552;DHT22;22559;54.176;12.102;2024-01-15T07:38:13;2.70;99.90
36552;DHT22;22559;54.176;12.102;2024-01-15T07:40:39;2.70;99.90
36552;DHT22;22559;54.176;12.102;2024-01-15T07:43:05;2.70;99.90
36552;DHT22;22559;54.176;12.102;2024-01-15T07:45:30;2.70;99.90
36552;DHT22;22559;54.176;12.102;2024-01-15T07:47:56;2.70;99.90
36552;DHT22;22559;54.176;12.102;2024-01-15T07:50:22;2.70;99.90
36552;DHT22;22559;54.176;12.102;2024-01-15T07:52:48;2.70;99.90
36552;DHT22;22559;54.176;12.102;2024-01-15T07:55:14;2.80;99.90
36552;DHT22;22559;54.176;12.102;2024-01-15T07:57:39;2.80;99.90
36552;DHT22;22559;54.176;12.102;2024-01-15T08:00:05;2.80;99.90
36552;DHT22;22559;54.176;12.102;2024-01-15T08:02:31;2.80;99.90
36552;DHT22;22559;54.176;12.102;2024-01-15T08:04:58;2.90;99.90
36552;DHT22;22559;54.176;12.102;2024-01-15T08:07:24;2.80;99.90
36552;DHT22;22559;54.176;12.102;2024-01-15T08:09:51;2.80;99.90
36552;DHT22;22559;54.176;12.102;2024-01-15T08:12:17;2.80;99.90
36552;DHT22;22559;54.176;12.102;2024-01-15T08:14:42;2.80;99.90
36552;DHT22;22559;54.176;12.102;2024-01-15T08:17:08;2.80;99.90
36552;DHT22;22559;54.176;12.102;2024-01-15T08:19:34;2.80;99.90
36552;DHT22;22559;54.176;12.102;2024-01-15T08:21:59;2.80;99.90
36552;DHT22;22559;54.176;12.102;2024-01-15T08:24:25;2.80;99.90
36552;DHT22;22559;54.176;12.102;2024-01-15T08:26:50;2.80;99.90
36552;DHT22;22559;54.176;12.102;2024-01-15T08:29:16;2.80;99.90
36552;DHT22;22559;54.176;12.102;2024-01-15T08:31:44;2.80;99.90
36552;DHT22;22559;54.176;12.102;2024-01-15T08:34:09;2.80;99.90
36552;DHT22;22559;54.176;12.102;2024-01-15T08:36:35;2.80;99.90
36552;DHT22;22559;54.176;12.102;2024-01-15T08:39:01;2.70;99.90
36552;DHT22;22559;54.176;12.102;2024-01-15T08:41:30;2.70;99.90
36552;DHT22;22559;54.176;12.102;2024-01-15T08:43:56;2.70;99.90
36552;DHT22;22559;54.176;12.102;2024-01-15T08:46:21;2.70;99.90
36552;DHT22;22559;54.176;12.102;2024-01-15T08:48:47;2.70;99.90
36552;DHT22;22559;54.176;12.102;2024-01-15T08:51:13;2.70;99.90
36552;DHT22;22559;54.176;12.102;2024-01-15T08:53:38;2.70;99.90
36552;DHT22;22559;54.176;12.102;2024-01-15T08:56:04;2.60;99.90
36552;DHT22;22559;54.176;12.102;2024-01-15T08:58:31;2.70;99.90
36552;DHT22;22559;54.176;12.102;2024-01-15T09:00:57;2.50;99.90
36552;DHT22;22559;54.176;12.102;2024-01-15T09:03:22;2.50;99.90
36552;DHT22;22559;54.176;12.102;2024-01-15T09:05:48;2.50;99.90
36552;DHT22;22559;54.176;12.102;2024-01-15T09:08:15;2.40;99.90
36552;DHT22;22559;54.176;12.102;2024-01-15T09:10:41;2.40;99.90
36552;DHT22;22559;54.176;12.102;2024-01-15T09:13:06;2.40;99.90
36552;DHT22;22559;54.176;12.102;2024-01-15T09:15:33;2.40;99.90
36552;DHT22;22559;54.176;12.102;2024-01-15T09:17:59;2.40;99.90
36552;DHT22;22559;54.176;12.102;2024-01-15T09:20:25;2.40;99.90
36552;DHT22;22559;54.176;12.102;2024-01-15T09:22:53;2.40;99.90
36552;DHT22;22559;54.176;12.102;2024-01-15T09:25:19;2.40;99.90
36552;DHT22;22559;54.176;12.102;2024-01-15T09:27:45;2.40;99.90
36552;DHT22;22559;54.176;12.102;2024-01-15T09:30:11;2.30;99.90
36552;DHT22;22559;54.176;12.102;2024-01-15T09:32:37;2.30;99.90
36552;DHT22;22559;54.176;12.102;2024-01-15T09:35:02;2.30;99.90
36552;DHT22;22559;54.176;12.102;2024-01-15T09:37:28;2.20;99.90
36552;DHT22;22559;54.176;12.102;2024-01-15T09:39:54;2.10;99.90
36552;DHT22;22559;54.176;12.102;2024-01-15T09:42:22;2.00;99.90
36552;DHT22;22559;54.176;12.102;2024-01-15T09:44:50;2.00;99.90
36552;DHT22;22559;54.176;12.102;2024-01-15T09:47:17;1.90;99.90
36552;DHT22;22559;54.176;12.102;2024-01-15T09:49:43;1.90;99.90
36552;DHT22;22559;54.176;12.102;2024-01-15T09:52:11;1.90;99.90
36552;DHT22;22559;54.176;12.102;2024-01-15T09:54:37;1.90;99.90
36552;DHT22;22559;54.176;12.102;2024-01-15T09:57:04;1.90;99.90
36552;DHT22;22559;54.176;12.102;2024-01-15T09:59:30;1.90;99.90
36552;DHT22;22559;54.176;12.102;2024-01-15T10:01:57;1.90;99.90
36552;DHT22;22559;54.176;12.102;2024-01-15T10:04:24;1.90;99.90
36552;DHT22;22559;54.176;12.102;2024-01-15T10:06:51;1.90;99.90
36552;DHT22;22559;54.176;12.102;2024-01-15T10:09:17;1.90;99.90
36552;DHT22;22559;54.176;12.102;2024-01-15T10:11:44;1.90;99.90
36552;DHT22;22559;54.176;12.102;2024-01-15T10:14:11;1.90;99.90
36552;DHT22;22559;54.176;12.102;2024-01-15T10:16:40;2.00;99.90
36552;DHT22;22559;54.176;12.102;2024-01-15T10:19:06;1.90;99.90
36552;DHT22;22559;54.176;12.102;2024-01-15T10:21:33;1.90;99.90
36552;DHT22;22559;54.176;12.102;2024-01-15T10:24:02;1.90;99.90
36552;DHT22;22559;54.176;12.102;2024-01-15T10:26:28;1.90;99.90
36552;DHT22;22559;54.176;12.102;2024-01-15T10:28:54;1.90;99.90
36552;DHT22;22559;54.176;12.102;2024-01-15T10:31:20;1.90;99.90
36552;DHT22;22559;54.176;12.102;2024-01-15T10:33:47;1.90;99.90
36552;DHT22;22559;54.176;12.102;2024-01-15T10:36:14;1.90;99.90
36552;DHT22;22559;54.176;12.102;2024-01-15T10:38:42;2.00;99.90
36552;DHT22;22559;54.176;12.102;2024-01-15T10:41:08;2.10;99.90
36552;DHT22;22559;54.176;12.102;2024-01-15T10:43:34;2.10;99.90
36552;DHT22;22559;54.176;12.102;2024-01-15T10:46:00;2.00;99.90
36552;DHT22;22559;54.176;12.102;2024-01-15T10:48:26;1.90;99.90
36552;DHT22;22559;54.176;12.102;2024-01-15T10:50:54;1.90;99.90
36552;DHT22;22559;54.176;12.102;2024-01-15T10:53:20;1.90;99.90
36552;DHT22;22559;54.176;12.102;2024-01-15T10:55:47;1.80;99.90
36552;DHT22;22559;54.176;12.102;2024-01-15T10:58:14;1.80;99.90
36552;DHT22;22559;54.176;12.102;2024-01-15T11:00:40;1.80;99.90
36552;DHT22;22559;54.176;12.102;2024-01-15T11:03:06;1.70;99.90
36552;DHT22;22559;54.176;12.102;2024-01-15T11:05:39;1.70;99.90
36552;DHT22;22559;54.176;12.102;2024-01-15T11:08:07;1.80;99.90
36552;DHT22;22559;54.176;12.102;2024-01-15T11:10:41;1.70;99.90
36552;DHT22;22559;54.176;12.102;2024-01-15T11:13:20;1.70;99.90
36552;DHT22;22559;54.176;12.102;2024-01-15T11:16:00;1.70;99.90
36552;DHT22;22559;54.176;12.102;2024-01-15T11:18:27;1.70;99.90
36552;DHT22;22559;54.176;12.102;2024-01-15T11:23:52;1.70;99.90
36552;DHT22;22559;54.176;12.102;2024-01-15T11:26:30;1.60;99.90
36552;DHT22;22559;54.176;12.102;2024-01-15T11:28:57;1.50;99.90
36552;DHT22;22559;54.176;12.102;2024-01-15T11:32:10;1.50;99.90
36552;DHT22;22559;54.176;12.102;2024-01-15T11:34:17;1.40;99.90
36552;DHT22;22559;54.176;12.102;2024-01-15T11:42:02;1.60;99.90
36552;DHT22;22559;54.176;12.102;2024-01-15T11:44:29;1.60;99.90
36552;DHT22;22559;54.176;12.102;2024-01-15T11:47:05;1.60;99.90
36552;DHT22;22559;54.176;12.102;2024-01-15T11:52:19;1.60;99.90
36552;DHT22;22559;54.176;12.102;2024-01-15T12:00:12;1.40;99.90
36552;DHT22;22559;54.176;12.102;2024-01-15T12:02:42;1.40;99.90
36552;DHT22;22559;54.176;12.102;2024-01-15T12:05:18;1.40;99.90
36552;DHT22;22559;54.176;12.102;2024-01-15T12:07:48;1.50;99.90
36552;DHT22;22559;54.176;12.102;2024-01-15T12:10:19;1.30;99.90
36552;DHT22;22559;54.176;12.102;2024-01-15T12:13:11;1.40;99.90
36552;DHT22;22559;54.176;12.102;2024-01-15T12:15:38;1.40;99.90
36552;DHT22;22559;54.176;12.102;2024-01-15T12:18:14;1.50;99.90
36552;DHT22;22559;54.176;12.102;2024-01-15T12:20:40;1.40;99.90
36552;DHT22;22559;54.176;12.102;2024-01-15T12:23:08;1.40;99.90
36552;DHT22;22559;54.176;12.102;2024-01-15T12:25:34;1.40;99.90
36552;DHT22;22559;54.176;12.102;2024-01-15T12:28:00;1.40;99.90
36552;DHT22;22559;54.176;12.102;2024-01-15T12:30:30;1.40;99.90
36552;DHT22;22559;54.176;12.102;2024-01-15T12:33:01;1.40;99.90
36552;DHT22;22559;54.176;12.102;2024-01-15T12:35:29;1.40;99.90
36552;DHT22;22559;54.176;12.102;2024-01-15T12:37:55;1.40;99.90
36552;DHT22;22559;54.176;12.102;2024-01-15T12:40:22;1.30;99.90
36552;DHT22;22559;54.176;12.102;2024-01-15T12:42:48;1.40;99.90
36552;DHT22;22559;54.176;12.102;2024-01-15T12:45:13;1.40;99.90
36552;DHT22;22559;54.176;12.102;2024-01-15T12:47:42;1.40;99.90
36552;DHT22;22559;54.176;12.102;2024-01-15T12:50:12;1.40;99.90
36552;DHT22;22559;54.176;12.102;2024-01-15T12:52:39;1.30;99.90
36552;DHT22;22559;54.176;12.102;2024-01-15T12:55:07;1.30;99.90
36552;DHT22;22559;54.176;12.102;2024-01-15T12:57:34;1.30;99.90
36552;DHT22;22559;54.176;12.102;2024-01-15T13:00:00;1.30;99.90
36552;DHT22;22559;54.176;12.102;2024-01-15T13:02:26;1.30;99.90
36552;DHT22;22559;54.176;12.102;2024-01-15T13:04:51;1.30;99.90
36552;DHT22;22559;54.176;12.102;2024-01-15T13:07:17;1.30;99.90
36552;DHT22;22559;54.176;12.102;2024-01-15T13:09:43;1.30;99.90
36552;DHT22;22559;54.176;12.102;2024-01-15T13:12:09;1.30;99.90
36552;DHT22;22559;54.176;12.102;2024-01-15T13:14:34;1.30;99.90
36552;DHT22;22559;54.176;12.102;2024-01-15T13:17:00;1.30;99.90
36552;DHT22;22559;54.176;12.102;2024-01-15T13:19:26;1.30;99.90
36552;DHT22;22559;54.176;12.102;2024-01-15T13:21:52;1.30;99.90
36552;DHT22;22559;54.176;12.102;2024-01-15T13:24:19;1.30;99.90
36552;DHT22;22559;54.176;12.102;2024-01-15T13:26:44;1.30;99.90
36552;DHT22;22559;54.176;12.102;2024-01-15T13:29:11;1.30;99.90
36552;DHT22;22559;54.176;12.102;2024-01-15T13:31:36;1.30;99.90
36552;DHT22;22559;54.176;12.102;2024-01-15T13:34:03;1.40;99.90
36552;DHT22;22559;54.176;12.102;2024-01-15T13:36:29;1.30;99.90
36552;DHT22;22559;54.176;12.102;2024-01-15T13:38:55;1.30;99.90
36552;DHT22;22559;54.176;12.102;2024-01-15T13:41:23;1.20;99.90
36552;DHT22;22559;54.176;12.102;2024-01-15T13:43:55;1.20;99.90
36552;DHT22;22559;54.176;12.102;2024-01-15T13:46:24;1.20;99.90
36552;DHT22;22559;54.176;12.102;2024-01-15T13:48:52;1.10;99.90
36552;DHT22;22559;54.176;12.102;2024-01-15T13:51:18;1.10;99.90
36552;DHT22;22559;54.176;12.102;2024-01-15T13:53:44;1.10;99.90
36552;DHT22;22559;54.176;12.102;2024-01-15T13:56:09;1.10;99.90
36552;DHT22;22559;54.176;12.102;2024-01-15T13:58:36;1.10;99.90
36552;DHT22;22559;54.176;12.102;2024-01-15T14:01:02;1.20;99.90
36552;DHT22;22559;54.176;12.102;2024-01-15T14:03:31;1.20;99.90
36552;DHT22;22559;54.176;12.102;2024-01-15T14:05:57;1.10;99.90
36552;DHT22;22559;54.176;12.102;2024-01-15T14:08:23;1.20;99.90
36552;DHT22;22559;54.176;12.102;2024-01-15T14:10:48;1.20;99.90
36552;DHT22;22559;54.176;12.102;2024-01-15T14:13:14;1.10;99.90
36552;DHT22;22559;54.176;12.102;2024-01-15T14:15:39;1.00;99.90
36552;DHT22;22559;54.176;12.102;2024-01-15T14:18:05;1.10;99.90
36552;DHT22;22559;54.176;12.102;2024-01-15T14:20:31;1.10;99.90
36552;DHT22;22559;54.176;12.102;2024-01-15T14:22:57;1.00;99.90
36552;DHT22;22559;54.176;12.102;2024-01-15T14:25:22;1.00;99.90
36552;DHT22;22559;54.176;12.102;2024-01-15T14:27:49;1.00;99.90
36552;DHT22;22559;54.176;12.102;2024-01-15T14:30:15;1.00;99.90
36552;DHT22;22559;54.176;12.102;2024-01-15T14:32:42;1.00;99.90
36552;DHT22;22559;54.176;12.102;2024-01-15T14:35:08;1.00;99.90
36552;DHT22;22559;54.176;12.102;2024-01-15T14:37:39;1.00;99.90
36552;DHT22;22559;54.176;12.102;2024-01-15T14:40:08;1.00;99.90
36552;DHT22;22559;54.176;12.102;2024-01-15T14:42:36;0.90;99.90
36552;DHT22;22559;54.176;12.102;2024-01-15T14:45:05;0.90;99.90
36552;DHT22;22559;54.176;12.102;2024-01-15T14:47:40;1.00;99.90
36552;DHT22;22559;54.176;12.102;2024-01-15T14:50:09;1.00;99.90
36552;DHT22;22559;54.176;12.102;2024-01-15T14:52:38;1.00;99.90
36552;DHT22;22559;54.176;12.102;2024-01-15T14:55:04;1.00;99.90
36552;DHT22;22559;54.176;12.102;2024-01-15T14:57:30;1.00;99.90
36552;DHT22;22559;54.176;12.102;2024-01-15T14:59:56;1.00;99.90
36552;DHT22;22559;54.176;12.102;2024-01-15T15:02:23;1.00;99.90
36552;DHT22;22559;54.176;12.102;2024-01-15T15:04:49;1.00;99.90
36552;DHT22;22559;54.176;12.102;2024-01-15T15:07:14;1.00;99.90
36552;DHT22;22559;54.176;12.102;2024-01-15T15:09:40;0.90;99.90
36552;DHT22;22559;54.176;12.102;2024-01-15T15:12:06;0.90;99.90
36552;DHT22;22559;54.176;12.102;2024-01-15T15:14:32;0.90;99.90
36552;DHT22;22559;54.176;12.102;2024-01-15T15:17:06;0.90;99.90
36552;DHT22;22559;54.176;12.102;2024-01-15T15:19:32;0.80;99.90
36552;DHT22;22559;54.176;12.102;2024-01-15T15:21:59;0.80;99.90
36552;DHT22;22559;54.176;12.102;2024-01-15T15:24:25;0.90;99.90
36552;DHT22;22559;54.176;12.102;2024-01-15T15:26:50;0.80;99.90
36552;DHT22;22559;54.176;12.102;2024-01-15T15:29:16;0.80;99.90
36552;DHT22;22559;54.176;12.102;2024-01-15T15:31:45;0.80;99.90
36552;DHT22;22559;54.176;12.102;2024-01-15T15:34:10;0.80;99.90
36552;DHT22;22559;54.176;12.102;2024-01-15T15:36:36;0.80;99.90
36552;DHT22;22559;54.176;12.102;2024-01-15T15:39:02;0.80;99.90
36552;DHT22;22559;54.176;12.102;2024-01-15T15:41:28;0.80;99.90